sensor_id;sensor_type;location;lat;lon;timestamp;P1;durP1;ratioP1;P2;durP2;ratioP2
45734;SDS011;31446;49.632;8.328;2022-12-29T00:12:09;2.63;;;0.77;;
45734;SDS011;31446;49.632;8.328;2022-12-29T00:27:16;3.55;;;0.68;;
45734;SDS011;31446;49.632;8.328;2022-12-29T00:42:34;1.35;;;0.70;;
45734;SDS011;31446;49.632;8.328;2022-12-29T00:57:53;3.38;;;1.02;;
45734;SDS011;31446;49.632;8.328;2022-12-29T01:12:59;0.52;;;0.38;;
45734;SDS011;31446;49.632;8.328;2022-12-29T01:28:06;1.15;;;0.50;;
45734;SDS011;31446;49.632;8.328;2022-12-29T01:43:13;3.63;;;0.60;;
45734;SDS011;31446;49.632;8.328;2022-12-29T01:58:20;1.90;;;0.50;;
45734;SDS011;31446;49.632;8.328;2022-12-29T02:13:28;1.05;;;0.40;;
45734;SDS011;31446;49.632;8.328;2022-12-29T02:28:45;2.00;;;0.57;;
45734;SDS011;31446;49.632;8.328;2022-12-29T02:44:12;1.87;;;0.60;;
45734;SDS011;31446;49.632;8.328;2022-12-29T02:59:24;0.82;;;0.60;;
45734;SDS011;31446;49.632;8.328;2022-12-29T03:14:31;1.65;;;0.60;;
45734;SDS011;31446;49.632;8.328;2022-12-29T03:29:54;2.92;;;0.95;;
45734;SDS011;31446;49.632;8.328;2022-12-29T03:45:05;2.10;;;1.10;;
45734;SDS011;31446;49.632;8.328;2022-12-29T04:00:13;3.40;;;1.00;;
45734;SDS011;31446;49.632;8.328;2022-12-29T04:15:20;3.03;;;1.45;;
45734;SDS011;31446;49.632;8.328;2022-12-29T04:30:27;1.92;;;0.80;;
45734;SDS011;31446;49.632;8.328;2022-12-29T04:45:33;1.17;;;0.73;;
45734;SDS011;31446;49.632;8.328;2022-12-29T05:00:39;2.08;;;0.60;;
45734;SDS011;31446;49.632;8.328;2022-12-29T05:15:49;1.63;;;0.80;;
45734;SDS011;31446;49.632;8.328;2022-12-29T05:30:55;3.28;;;0.82;;
45734;SDS011;31446;49.632;8.328;2022-12-29T05:46:02;2.22;;;0.80;;
45734;SDS011;31446;49.632;8.328;2022-12-29T06:01:09;1.90;;;1.00;;
45734;SDS011;31446;49.632;8.328;2022-12-29T06:16:16;4.03;;;1.05;;
45734;SDS011;31446;49.632;8.328;2022-12-29T06:31:22;3.88;;;1.17;;
45734;SDS011;31446;49.632;8.328;2022-12-29T06:46:29;3.88;;;1.20;;
45734;SDS011;31446;49.632;8.328;2022-12-29T07:01:35;5.13;;;1.60;;
45734;SDS011;31446;49.632;8.328;2022-12-29T07:16:42;3.95;;;1.33;;
45734;SDS011;31446;49.632;8.328;2022-12-29T07:31:48;2.45;;;1.35;;
45734;SDS011;31446;49.632;8.328;2022-12-29T07:46:54;4.55;;;1.42;;
45734;SDS011;31446;49.632;8.328;2022-12-29T08:02:00;4.45;;;1.30;;
45734;SDS011;31446;49.632;8.328;2022-12-29T08:17:06;4.50;;;1.25;;
45734;SDS011;31446;49.632;8.328;2022-12-29T08:32:13;3.28;;;1.60;;
45734;SDS011;31446;49.632;8.328;2022-12-29T08:47:19;4.13;;;1.42;;
45734;SDS011;31446;49.632;8.328;2022-12-29T09:02:25;4.22;;;1.35;;
45734;SDS011;31446;49.632;8.328;2022-12-29T09:17:32;2.60;;;1.52;;
45734;SDS011;31446;49.632;8.328;2022-12-29T09:32:48;4.43;;;1.60;;
45734;SDS011;31446;49.632;8.328;2022-12-29T09:47:55;1.45;;;1.08;;
45734;SDS011;31446;49.632;8.328;2022-12-29T10:03:02;3.92;;;1.40;;
45734;SDS011;31446;49.632;8.328;2022-12-29T10:18:22;3.60;;;0.98;;
45734;SDS011;31446;49.632;8.328;2022-12-29T10:33:48;1.50;;;0.98;;
45734;SDS011;31446;49.632;8.328;2022-12-29T10:48:56;5.63;;;1.25;;
45734;SDS011;31446;49.632;8.328;2022-12-29T11:04:05;6.00;;;1.30;;
45734;SDS011;31446;49.632;8.328;2022-12-29T11:19:23;4.97;;;1.73;;
45734;SDS011;31446;49.632;8.328;2022-12-29T11:34:33;4.15;;;1.75;;
45734;SDS011;31446;49.632;8.328;2022-12-29T11:49:40;3.55;;;1.38;;
45734;SDS011;31446;49.632;8.328;2022-12-29T12:04:47;6.40;;;2.25;;
45734;SDS011;31446;49.632;8.328;2022-12-29T12:19:56;9.35;;;2.10;;
45734;SDS011;31446;49.632;8.328;2022-12-29T12:35:07;7.05;;;1.50;;
45734;SDS011;31446;49.632;8.328;2022-12-29T12:50:26;4.63;;;1.25;;
45734;SDS011;31446;49.632;8.328;2022-12-29T13:05:50;1.73;;;0.73;;
45734;SDS011;31446;49.632;8.328;2022-12-29T13:21:09;5.93;;;1.10;;
45734;SDS011;31446;49.632;8.328;2022-12-29T13:36:22;1.25;;;0.52;;
45734;SDS011;31446;49.632;8.328;2022-12-29T13:51:34;2.17;;;0.70;;
45734;SDS011;31446;49.632;8.328;2022-12-29T14:06:43;4.18;;;1.17;;
45734;SDS011;31446;49.632;8.328;2022-12-29T14:21:55;2.90;;;1.05;;
45734;SDS011;31446;49.632;8.328;2022-12-29T14:37:14;8.63;;;0.82;;
45734;SDS011;31446;49.632;8.328;2022-12-29T14:52:29;2.10;;;0.47;;
45734;SDS011;31446;49.632;8.328;2022-12-29T15:07:36;3.15;;;0.95;;
45734;SDS011;31446;49.632;8.328;2022-12-29T15:22:44;4.93;;;1.95;;
45734;SDS011;31446;49.632;8.328;2022-12-29T15:37:54;7.57;;;1.30;;
45734;SDS011;31446;49.632;8.328;2022-12-29T15:53:00;6.13;;;1.15;;
45734;SDS011;31446;49.632;8.328;2022-12-29T16:08:20;4.60;;;0.82;;
45734;SDS011;31446;49.632;8.328;2022-12-29T16:23:30;7.88;;;0.90;;
45734;SDS011;31446;49.632;8.328;2022-12-29T16:38:37;6.28;;;1.17;;
45734;SDS011;31446;49.632;8.328;2022-12-29T16:53:47;10.10;;;1.15;;
45734;SDS011;31446;49.632;8.328;2022-12-29T17:08:56;7.55;;;1.65;;
45734;SDS011;31446;49.632;8.328;2022-12-29T17:24:03;7.57;;;1.30;;
45734;SDS011;31446;49.632;8.328;2022-12-29T17:39:16;5.03;;;1.33;;
45734;SDS011;31446;49.632;8.328;2022-12-29T17:54:23;5.63;;;1.13;;
45734;SDS011;31446;49.632;8.328;2022-12-29T18:09:30;9.90;;;3.33;;
45734;SDS011;31446;49.632;8.328;2022-12-29T18:24:37;9.77;;;1.92;;
45734;SDS011;31446;49.632;8.328;2022-12-29T18:39:43;7.65;;;2.20;;
45734;SDS011;31446;49.632;8.328;2022-12-29T18:54:49;9.10;;;1.52;;
45734;SDS011;31446;49.632;8.328;2022-12-29T19:09:56;13.77;;;4.25;;
45734;SDS011;31446;49.632;8.328;2022-12-29T19:25:03;7.63;;;1.60;;
45734;SDS011;31446;49.632;8.328;2022-12-29T19:40:11;12.15;;;2.28;;
45734;SDS011;31446;49.632;8.328;2022-12-29T19:55:18;7.47;;;2.13;;
45734;SDS011;31446;49.632;8.328;2022-12-29T20:10:24;21.42;;;8.18;;
45734;SDS011;31446;49.632;8.328;2022-12-29T20:25:31;7.63;;;2.20;;
45734;SDS011;31446;49.632;8.328;2022-12-29T20:40:37;11.88;;;2.75;;
45734;SDS011;31446;49.632;8.328;2022-12-29T20:55:44;6.15;;;1.42;;
45734;SDS011;31446;49.632;8.328;2022-12-29T21:10:52;8.82;;;1.88;;
45734;SDS011;31446;49.632;8.328;2022-12-29T21:26:00;6.68;;;1.55;;
45734;SDS011;31446;49.632;8.328;2022-12-29T21:41:07;9.27;;;1.77;;
45734;SDS011;31446;49.632;8.328;2022-12-29T21:56:16;11.48;;;1.63;;
45734;SDS011;31446;49.632;8.328;2022-12-29T22:11:25;12.52;;;2.00;;
45734;SDS011;31446;49.632;8.328;2022-12-29T22:26:44;12.18;;;1.83;;
45734;SDS011;31446;49.632;8.328;2022-12-29T22:41:50;15.45;;;2.92;;
45734;SDS011;31446;49.632;8.328;2022-12-29T22:56:56;13.80;;;3.55;;
45734;SDS011;31446;49.632;8.328;2022-12-29T23:12:03;15.95;;;4.55;;
45734;SDS011;31446;49.632;8.328;2022-12-29T23:27:10;23.42;;;7.47;;
45734;SDS011;31446;49.632;8.328;2022-12-29T23:42:16;11.52;;;1.60;;
45734;SDS011;31446;49.632;8.328;2022-12-29T23:57:22;16.02;;;2.55;;
